Time;durP1;ratioP1;P1;durP2;ratioP2;P2;SDS_P1;SDS_P2;PMS_P1;PMS_P2;Temp;Humidity;BMP_temperature;BMP_pressure;BME280_temperature;BME280_humidity;BME280_pressure;Samples;Min_cycle;Max_cycle;Signal;HPM_P1;HPM_P2
2021/07/17 00:02:00;;;;;;;8.87;1.47;;;;;;;;;;4842854;28;20261;-77
2021/07/17 00:04:22;;;;;;;9.87;1.63;;;;;;;;;;4846847;28;22028;-75
2021/07/17 00:06:45;;;;;;;11.23;1.80;;;;;;;;;;4847769;28;20218;-78
2021/07/17 00:09:08;;;;;;;16.20;2.47;;;;;;;;;;4826703;28;20198;-75
2021/07/17 00:11:31;;;;;;;5.17;0.87;;;;;;;;;;4845297;28;20185;-76
2021/07/17 00:13:53;;;;;;;6.73;1.17;;;;;;;;;;4840292;28;20197;-86
2021/07/17 00:16:18;;;;;;;11.80;1.93;;;19.50;43.50;;;;;;4849031;28;20675;-89
2021/07/17 00:18:41;;;;;;;9.73;1.70;;;;;;;;;;4824029;28;20707;-78
2021/07/17 00:21:04;;;;;;;9.73;1.53;;;;;;;;;;4844855;28;20182;-83
2021/07/17 00:23:27;;;;;;;5.63;0.97;;;;;;;;;;4846679;28;20219;-84
2021/07/17 00:25:53;;;;;;;6.80;1.17;;;;;;;;;;4841179;28;20198;-75
2021/07/17 00:28:16;;;;;;;13.00;2.23;;;;;;;;;;4846168;28;20224;-90
2021/07/17 00:30:38;;;;;;;3.10;0.60;;;;;;;;;;4839872;28;20194;-81
2021/07/17 00:33:02;;;;;;;7.70;1.27;;;19.60;41.40;;;;;;4829373;28;20766;-88
2021/07/17 00:35:25;;;;;;;6.97;1.17;;;;;;;;;;4849917;28;20225;-80
2021/07/17 00:37:48;;;;;;;6.37;1.10;;;;;;;;;;4845790;28;20198;-78
2021/07/17 00:40:12;;;;;;;12.57;2.07;;;19.50;41.30;;;;;;4843402;28;20713;-76
2021/07/17 00:42:35;;;;;;;3.33;0.63;;;;;;;;;;4834126;28;20252;-86
2021/07/17 00:44:58;;;;;;;8.23;1.43;;;;;;;;;;4828716;28;20202;-74
2021/07/17 00:47:21;;;;;;;4.10;0.77;;;;;;;;;;4848446;28;20203;-84
2021/07/17 00:49:45;;;;;;;4.27;0.80;;;19.50;41.30;;;;;;4848121;28;20217;-83
2021/07/17 00:52:08;;;;;;;11.70;1.83;;;;;;;;;;4836099;28;20259;-92
2021/07/17 00:54:33;;;;;;;3.30;0.63;;;19.40;41.40;;;;;;4843275;28;20248;-89
2021/07/17 00:56:57;;;;;;;4.77;0.80;;;19.50;40.90;;;;;;4854970;28;20282;-82
2021/07/17 00:59:23;;;;;;;3.43;0.63;;;19.50;41.20;;;;;;4847174;28;20241;-84
2021/07/17 01:01:46;;;;;;;3.80;0.70;;;;;;;;;;4850322;28;20188;-91
2021/07/17 01:04:08;;;;;;;7.30;1.30;;;;;;;;;;4853168;28;20187;-91
2021/07/17 01:06:32;;;;;;;3.53;0.70;;;19.20;42.70;;;;;;4828220;28;20255;-85
2021/07/17 01:08:55;;;;;;;5.87;1.10;;;;;;;;;;4837902;28;20188;-81
2021/07/17 01:11:18;;;;;;;5.67;1.03;;;;;;;;;;4844166;28;20200;-85
2021/07/17 01:13:41;;;;;;;3.23;0.60;;;;;;;;;;4841924;28;20193;-78
2021/07/17 01:16:04;;;;;;;11.90;2.00;;;;;;;;;;4836801;28;20211;-78
2021/07/17 01:18:26;;;;;;;16.70;2.80;;;;;;;;;;4820492;28;20186;-79
2021/07/17 01:20:51;;;;;;;2.00;0.43;;;19.20;40.10;;;;;;4845293;28;20585;-91
2021/07/17 01:23:15;;;;;;;8.37;1.53;;;19.20;39.80;;;;;;4847529;28;20596;-88
2021/07/17 01:25:38;;;;;;;1.83;0.40;;;;;;;;;;4848332;28;20199;-85
2021/07/17 01:28:00;;;;;;;5.40;0.97;;;;;;;;;;4847061;28;20195;-88
2021/07/17 01:30:25;;;;;;;4.40;0.87;;;19.20;39.90;;;;;;4838919;28;20197;-88
2021/07/17 01:32:48;;;;;;;4.70;0.90;;;;;;;;;;4828279;28;20205;-85
2021/07/17 01:35:11;;;;;;;9.10;1.63;;;;;;;;;;4840934;28;20189;-82
2021/07/17 01:37:34;;;;;;;5.57;1.00;;;;;;;;;;4849313;28;20188;-88
2021/07/17 01:40:00;;;;;;;6.37;1.13;;;19.10;39.40;;;;;;4853791;28;20191;-84
2021/07/17 01:42:23;;;;;;;3.33;0.67;;;;;;;;;;4859169;28;20692;-89
2021/07/17 01:44:46;;;;;;;3.63;0.73;;;19.20;39.70;;;;;;4851154;28;20187;-90
2021/07/17 01:47:09;;;;;;;8.00;1.47;;;;;;;;;;4848639;28;20194;-93
2021/07/17 01:49:32;;;;;;;5.43;1.00;;;;;;;;;;4848862;28;20223;-90
2021/07/17 01:51:55;;;;;;;5.57;1.00;;;;;;;;;;4832960;28;20533;-75
2021/07/17 01:54:18;;;;;;;6.20;1.03;;;;;;;;;;4851401;28;20238;-74
2021/07/17 01:56:41;;;;;;;4.83;0.83;;;18.80;40.30;;;;;;4849022;28;20212;-74
2021/07/17 01:59:04;;;;;;;15.50;2.33;;;;;;;;;;4846492;28;20192;-75
2021/07/17 02:01:27;;;;;;;13.53;2.10;;;18.70;39.40;;;;;;4838029;28;20662;-74
2021/07/17 02:03:50;;;;;;;6.20;1.07;;;;;;;;;;4853787;28;20201;-74
2021/07/17 02:06:13;;;;;;;15.33;2.30;;;;;;;;;;4841650;28;20247;-76
2021/07/17 02:08:36;;;;;;;23.10;3.57;;;;;;;;;;4851876;28;20195;-75
2021/07/17 02:10:59;;;;;;;7.13;1.17;;;;;;;;;;4853876;28;20192;-74
2021/07/17 02:13:22;;;;;;;8.70;1.40;;;18.80;38.30;;;;;;4847165;28;20200;-74
2021/07/17 02:15:47;;;;;;;9.57;1.57;;;18.70;38.40;;;;;;4851619;28;20191;-76
2021/07/17 02:18:10;;;;;;;16.17;2.47;;;;;;;;;;4844992;28;20657;-74
2021/07/17 02:20:33;;;;;;;9.43;1.50;;;;;;;;;;4831151;28;20610;-74
2021/07/17 02:22:55;;;;;;;13.00;2.07;;;;;;;;;;4843253;28;20195;-77
2021/07/17 02:25:18;;;;;;;8.53;1.30;;;;;;;;;;4847942;28;20195;-75
2021/07/17 02:27:41;;;;;;;9.47;1.60;;;;;;;;;;4839972;28;20203;-75
2021/07/17 02:30:06;;;;;;;12.87;1.93;;;18.60;38.30;;;;;;4850331;28;20262;-75
2021/07/17 02:32:29;;;;;;;5.63;0.93;;;;;;;;;;4822123;28;20204;-77
2021/07/17 02:34:53;;;;;;;7.10;1.17;;;;;;;;;;4850451;28;20186;-76
2021/07/17 02:37:15;;;;;;;10.87;1.73;;;;;;;;;;4847991;28;20696;-78
2021/07/17 02:39:38;;;;;;;7.90;1.27;;;;;;;;;;4849664;28;20237;-79
2021/07/17 02:42:01;;;;;;;8.97;1.33;;;;;;;;;;4842483;28;20284;-75
2021/07/17 02:44:23;;;;;;;10.77;1.67;;;;;;;;;;4854447;28;20196;-74
2021/07/17 02:46:47;;;;;;;8.30;1.37;;;18.60;37.80;;;;;;4843082;28;20193;-75
2021/07/17 02:49:10;;;;;;;19.33;3.07;;;;;;;;;;4846846;28;20232;-74
2021/07/17 02:51:33;;;;;;;5.80;1.00;;;;;;;;;;4850913;28;20188;-75
2021/07/17 02:53:56;;;;;;;7.63;1.27;;;;;;;;;;4844674;28;20246;-76
2021/07/17 02:56:19;;;;;;;6.90;1.10;;;;;;;;;;4842288;28;20756;-79
2021/07/17 02:58:41;;;;;;;6.50;1.07;;;;;;;;;;4846167;28;20196;-77
2021/07/17 03:01:04;;;;;;;13.47;2.10;;;;;;;;;;4849402;28;20246;-76
2021/07/17 03:03:28;;;;;;;5.87;1.00;;;18.80;37.40;;;;;;4850303;28;20282;-76
2021/07/17 03:05:52;;;;;;;3.03;0.50;;;18.80;37.30;;;;;;4845517;28;20666;-95
2021/07/17 03:08:19;;;;;;;8.07;1.27;;;18.90;37.10;;;;;;4861200;28;20191;-94
2021/07/17 03:10:42;;;;;;;7.47;1.20;;;;;;;;;;4868323;28;20192;-82
2021/07/17 03:13:12;;;;;;;6.40;1.00;;;19.10;37.10;;;;;;4859854;28;20194;-86
2021/07/17 03:15:35;;;;;;;4.00;0.70;;;;;;;;;;4831214;28;20216;-95
2021/07/17 03:17:57;;;;;;;3.67;0.60;;;;;;;;;;4924810;23;20221;-76
2021/07/17 03:20:24;;;;;;;4.23;0.73;;;19.30;37.30;;;;;;4851520;28;20178;-90
2021/07/17 03:22:50;;;;;;;3.50;0.63;;;;;;;;;;4824063;28;20199;-93
2021/07/17 03:25:19;;;;;;;6.67;1.07;;;19.40;37.80;;;;;;4843582;28;20236;-88
2021/07/17 03:27:45;;;;;;;5.33;0.90;;;;;;;;;;4844895;28;20192;-88
2021/07/17 03:30:09;;;;;;;7.10;1.10;;;19.50;38.20;;;;;;4816116;28;20200;-91
2021/07/17 03:32:32;;;;;;;5.57;0.93;;;;;;;;;;4806917;28;20241;-91
2021/07/17 03:35:08;;;;;;;5.30;0.90;;;;;;;;;;4834718;28;20213;-94
2021/07/17 03:37:32;;;;;;;4.97;0.73;;;19.60;38.60;;;;;;4830836;28;20277;-92
2021/07/17 03:39:56;;;;;;;3.43;0.63;;;;;;;;;;4846462;28;20191;-80
2021/07/17 03:42:24;;;;;;;4.13;0.70;;;19.60;38.70;;;;;;4821151;28;20226;-83
2021/07/17 03:44:50;;;;;;;2.43;0.47;;;19.60;38.80;;;;;;4837228;28;20185;-87
2021/07/17 03:47:21;;;;;;;7.30;1.13;;;19.60;38.80;;;;;;4838260;28;20193;-78
2021/07/17 03:49:50;;;;;;;3.30;0.50;;;19.60;38.90;;;;;;4837127;28;20186;-85
2021/07/17 03:52:16;;;;;;;9.77;1.53;;;;;;;;;;4832769;28;20190;-94
2021/07/17 03:54:40;;;;;;;4.50;0.83;;;19.80;39.10;;;;;;4823113;28;20257;-89
2021/07/17 03:57:03;;;;;;;7.43;1.10;;;;;;;;;;4820917;28;20277;-82
2021/07/17 03:59:26;;;;;;;4.00;0.63;;;;;;;;;;4811458;28;20224;-87
2021/07/17 04:01:51;;;;;;;7.90;1.30;;;;;;;;;;4833759;28;20181;-91
2021/07/17 04:04:14;;;;;;;15.87;2.43;;;;;;;;;;4829013;28;20209;-80
2021/07/17 04:06:38;;;;;;;7.83;1.33;;;;;;;;;;4829343;28;20191;-81
2021/07/17 04:09:03;;;;;;;22.83;3.37;;;;;;;;;;4818114;28;20248;-75
2021/07/17 04:11:27;;;;;;;9.80;1.53;;;20.00;42.00;;;;;;4815786;28;20774;-75
2021/07/17 04:14:10;;;;;;;15.47;2.33;;;;;;;;;;4818314;28;20189;-75
2021/07/17 04:16:52;;;;;;;8.53;1.40;;;;;;;;;;4816242;28;20210;-75
2021/07/17 04:19:35;;;;;;;14.27;2.17;;;;;;;;;;4817267;28;20765;-75
2021/07/17 04:22:18;;;;;;;7.37;1.17;;;;;;;;;;4818215;28;20237;-79
2021/07/17 04:25:01;;;;;;;10.10;1.57;;;20.70;47.90;;;;;;4818277;28;20197;-73
2021/07/17 04:27:46;;;;;;;8.50;1.30;;;20.80;49.60;;;;;;4815085;28;20179;-76
2021/07/17 04:30:29;;;;;;;10.00;1.57;;;;;;;;;;4816856;28;20271;-75
2021/07/17 04:33:12;;;;;;;14.77;2.30;;;;;;;;;;4789605;28;20188;-77
2021/07/17 04:35:55;;;;;;;5.57;0.90;;;;;;;;;;4787351;28;20185;-76
2021/07/17 04:38:38;;;;;;;11.17;1.77;;;21.20;57.10;;;;;;4798249;28;20211;-79
2021/07/17 04:41:21;;;;;;;8.27;1.43;;;;;;;;;;4816866;28;20226;-79
2021/07/17 04:44:05;;;;;;;13.77;2.03;;;21.10;60.00;;;;;;4818171;28;20191;-82
2021/07/17 04:46:48;;;;;;;4.97;0.87;;;;;;;;;;4808539;28;20199;-75
2021/07/17 04:49:11;;;;;;;16.20;2.53;;;;;;;;;;4816047;28;20939;-76
2021/07/17 04:51:33;;;;;;;14.90;2.13;;;;;;;;;;4816814;28;20724;-75
2021/07/17 04:53:56;;;;;;;6.67;1.10;;;;;;;;;;4817952;28;20182;-78
2021/07/17 04:56:19;;;;;;;4.00;0.70;;;;;;;;;;4817916;28;20239;-75
2021/07/17 04:58:41;;;;;;;14.03;2.23;;;;;;;;;;4809583;28;20220;-81
2021/07/17 05:01:05;;;;;;;11.57;1.77;;;21.50;67.90;;;;;;4797609;28;20203;-76
2021/07/17 05:03:28;;;;;;;7.50;1.23;;;;;;;;;;4805638;28;20181;-75
2021/07/17 05:05:51;;;;;;;4.60;0.83;;;;;;;;;;4819929;28;20654;-75
2021/07/17 05:08:14;;;;;;;13.77;2.10;;;;;;;;;;4820549;28;20627;-90
2021/07/17 05:10:36;;;;;;;10.27;1.60;;;;;;;;;;4820213;28;20241;-75
2021/07/17 05:12:59;;;;;;;10.43;1.53;;;;;;;;;;4820776;28;20476;-75
2021/07/17 05:15:22;;;;;;;6.70;1.07;;;;;;;;;;4821376;28;20204;-75
2021/07/17 05:17:46;;;;;;;4.13;0.73;;;21.70;69.80;;;;;;4821600;28;20298;-76
2021/07/17 05:20:10;;;;;;;14.70;2.17;;;21.80;71.60;;;;;;4820739;28;20182;-75
2021/07/17 05:22:33;;;;;;;6.67;1.10;;;;;;;;;;4820915;28;20188;-75
2021/07/17 05:24:56;;;;;;;6.70;1.07;;;;;;;;;;4821040;28;20189;-79
2021/07/17 05:27:18;;;;;;;8.50;1.33;;;;;;;;;;4819526;28;21005;-78
2021/07/17 05:29:41;;;;;;;7.43;1.20;;;;;;;;;;4819228;28;20319;-75
2021/07/17 05:32:04;;;;;;;14.27;2.17;;;;;;;;;;4820008;28;20610;-78
2021/07/17 05:34:28;;;;;;;4.77;0.83;;;22.60;54.40;;;;;;4808638;28;20182;-93
2021/07/17 05:36:51;;;;;;;5.20;0.87;;;;;;;;;;4812185;28;20215;-87
2021/07/17 05:39:14;;;;;;;14.00;2.03;;;;;;;;;;4822401;28;20706;-85
2021/07/17 05:41:36;;;;;;;5.97;1.03;;;;;;;;;;4812101;28;20265;-84
2021/07/17 05:43:59;;;;;;;3.47;0.67;;;;;;;;;;4818738;28;20667;-84
2021/07/17 05:46:22;;;;;;;5.67;0.93;;;;;;;;;;4824604;28;20198;-79
2021/07/17 05:48:44;;;;;;;4.27;0.63;;;;;;;;;;4823218;28;20198;-82
2021/07/17 05:51:08;;;;;;;12.77;1.87;;;23.00;67.30;;;;;;4823335;28;20663;-79
2021/07/17 05:53:31;;;;;;;7.30;1.23;;;;;;;;;;4822962;28;20186;-90
2021/07/17 05:55:54;;;;;;;2.63;0.47;;;;;;;;;;4823531;28;20537;-91
2021/07/17 05:58:17;;;;;;;10.57;1.53;;;;;;;;;;4823278;28;20217;-75
2021/07/17 06:00:42;;;;;;;43.17;6.33;;;;;;;;;;4821972;28;20187;-94
2021/07/17 06:03:05;;;;;;;9.13;1.30;;;;;;;;;;4819776;28;20190;-90
2021/07/17 06:05:27;;;;;;;3.67;0.60;;;;;;;;;;4791542;28;20244;-91
2021/07/17 06:07:51;;;;;;;2.80;0.50;;;23.20;71.80;;;;;;4824828;28;20229;-93
2021/07/17 06:10:14;;;;;;;12.63;1.80;;;;;;;;;;4822530;28;20657;-94
2021/07/17 06:12:37;;;;;;;3.60;0.60;;;;;;;;;;4822985;28;20202;-86
2021/07/17 06:15:00;;;;;;;8.90;1.40;;;;;;;;;;4822470;28;20190;-80
2021/07/17 06:17:22;;;;;;;7.23;1.17;;;;;;;;;;4821346;28;20197;-92
2021/07/17 06:19:45;;;;;;;5.33;0.87;;;;;;;;;;4821985;28;20656;-92
2021/07/17 06:22:08;;;;;;;17.00;2.50;;;;;;;;;;4820511;28;20191;-84
2021/07/17 06:24:32;;;;;;;5.87;0.93;;;23.60;51.50;;;;;;4820141;28;20193;-72
2021/07/17 06:26:55;;;;;;;11.13;1.70;;;;;;;;;;4818629;28;20545;-75
2021/07/17 06:29:18;;;;;;;9.17;1.43;;;;;;;;;;4818334;28;20630;-75
2021/07/17 06:31:40;;;;;;;7.37;1.20;;;;;;;;;;4808209;28;20182;-75
2021/07/17 06:34:04;;;;;;;16.10;2.40;;;;;;;;;;4819730;28;20264;-75
2021/07/17 06:36:27;;;;;;;15.87;2.43;;;;;;;;;;4804160;28;20205;-75
2021/07/17 06:38:50;;;;;;;6.70;1.03;;;;;;;;;;4817523;28;20264;-75
2021/07/17 06:41:14;;;;;;;15.17;2.17;;;24.10;90.80;;;;;;4816896;28;20211;-75
2021/07/17 06:43:37;;;;;;;8.67;1.20;;;;;;;;;;4820239;28;20704;-75
2021/07/17 06:46:00;;;;;;;8.33;1.13;;;;;;;;;;4814831;28;20189;-77
2021/07/17 06:48:22;;;;;;;40.40;4.80;;;;;;;;;;4799557;28;20258;-76
2021/07/17 06:50:47;;;;;;;16.73;2.13;;;;;;;;;;4800894;28;20195;-76
2021/07/17 06:53:10;;;;;;;23.33;2.70;;;;;;;;;;4801171;28;20184;-75
2021/07/17 06:55:34;;;;;;;10.50;1.37;;;;;;;;;;4780620;28;20256;-76
2021/07/17 06:57:57;;;;;;;21.03;2.53;;;24.30;31.60;;;;;;4799174;28;20211;-76
2021/07/17 07:00:20;;;;;;;10.63;1.33;;;24.40;60.00;;;;;;4800245;28;20189;-77
2021/07/17 07:02:43;;;;;;;8.47;1.10;;;;;;;;;;4799375;28;20239;-75
2021/07/17 07:05:08;;;;;;;17.93;2.20;;;24.40;75.60;;;;;;4801910;28;20242;-87
2021/07/17 07:07:31;;;;;;;6.87;0.90;;;;;;;;;;4802093;28;20593;-90
2021/07/17 07:09:54;;;;;;;13.27;1.60;;;;;;;;;;4800672;28;20667;-92
2021/07/17 07:12:18;;;;;;;4.23;0.60;;;;;;;;;;4802778;28;20199;-82
2021/07/17 07:14:42;;;;;;;3.30;0.50;;;24.80;77.40;;;;;;4799770;28;20733;-84
2021/07/17 07:17:05;;;;;;;22.23;2.83;;;;;;;;;;4819810;28;20246;-86
2021/07/17 07:19:28;;;;;;;23.70;3.10;;;;;;;;;;4804961;28;20289;-85
2021/07/17 07:21:51;;;;;;;11.30;3.07;;;;;;;;;;4818621;28;20214;-83
2021/07/17 07:24:14;;;;;;;37.00;10.30;;;;;;;;;;4819363;28;20194;-87
2021/07/17 07:26:36;;;;;;;19.77;16.00;;;;;;;;;;4819424;28;20739;-75
2021/07/17 07:28:59;;;;;;;17.40;13.50;;;;;;;;;;4817730;28;20202;-75
2021/07/17 07:31:23;;;;;;;32.30;11.57;;;26.40;66.60;;;;;;4818468;28;20660;-83
2021/07/17 07:33:46;;;;;;;12.83;3.90;;;;;;;;;;4809871;28;20250;-89
2021/07/17 07:36:08;;;;;;;26.77;4.10;;;;;;;;;;4805731;28;20252;-86
2021/07/17 07:38:31;;;;;;;42.30;5.87;;;;;;;;;;4812408;28;20253;-90
2021/07/17 07:40:54;;;;;;;11.63;3.10;;;;;;;;;;4793649;28;20192;-78
2021/07/17 07:43:17;;;;;;;32.90;4.57;;;;;;;;;;4785396;28;20242;-83
2021/07/17 07:45:39;;;;;;;10.70;1.53;;;;;;;;;;4819073;28;20668;-82
2021/07/17 07:48:03;;;;;;;29.67;3.70;;;27.00;83.40;;;;;;4818638;28;20657;-80
2021/07/17 07:50:26;;;;;;;10.93;1.33;;;;;;;;;;4808696;28;20719;-80
2021/07/17 07:52:50;;;;;;;11.33;1.53;;;;;;;;;;4818490;28;20195;-88
2021/07/17 07:55:13;;;;;;;22.37;2.83;;;;;;;;;;4816454;28;20183;-81
2021/07/17 07:57:36;;;;;;;9.10;1.20;;;;;;;;;;4812316;28;20183;-85
2021/07/17 07:59:58;;;;;;;8.13;1.13;;;;;;;;;;4819163;28;20219;-81
2021/07/17 08:02:21;;;;;;;5.50;0.73;;;;;;;;;;4817023;28;20218;-89
2021/07/17 08:04:45;;;;;;;10.47;1.43;;;27.60;99.90;;;;;;4819731;28;20257;-88
2021/07/17 08:07:10;;;;;;;26.60;3.10;;;;;;;;;;4820445;28;20233;-81
2021/07/17 08:09:32;;;;;;;5.27;0.73;;;;;;;;;;4820654;28;20238;-86
2021/07/17 08:11:55;;;;;;;5.57;0.73;;;;;;;;;;4821010;28;20241;-90
2021/07/17 08:14:18;;;;;;;8.63;1.13;;;;;;;;;;4820414;28;20190;-84
2021/07/17 08:16:41;;;;;;;4.77;0.60;;;;;;;;;;4821103;28;20711;-90
2021/07/17 08:19:04;;;;;;;17.20;2.07;;;;;;;;;;4803439;28;20234;-92
2021/07/17 08:21:28;;;;;;;7.70;1.10;;;28.50;35.80;;;;;;4820545;28;20664;-90
2021/07/17 08:23:51;;;;;;;4.53;0.60;;;;;;;;;;4821059;28;20187;-85
2021/07/17 08:26:14;;;;;;;19.43;2.33;;;;;;;;;;4820044;28;20757;-90
2021/07/17 08:28:37;;;;;;;25.67;3.10;;;;;;;;;;4820248;28;20511;-88
2021/07/17 08:31:00;;;;;;;2.93;0.43;;;;;;;;;;4820224;28;20265;-83
2021/07/17 08:33:22;;;;;;;8.33;1.10;;;;;;;;;;4820501;28;20184;-91
2021/07/17 08:35:45;;;;;;;21.97;2.67;;;;;;;;;;4818855;28;20188;-87
2021/07/17 08:38:09;;;;;;;23.47;2.97;;;30.10;47.60;;;;;;4818619;28;20615;-86
2021/07/17 08:40:32;;;;;;;10.73;1.33;;;;;;;;;;4817847;28;20794;-77
2021/07/17 08:42:57;;;;;;;10.67;1.37;;;;;;;;;;4818388;28;20667;-75
2021/07/17 08:45:20;;;;;;;9.60;1.27;;;30.80;52.40;;;;;;4818363;28;20236;-76
2021/07/17 08:47:44;;;;;;;14.47;1.80;;;;;;;;;;4816733;28;20655;-76
2021/07/17 08:50:09;;;;;;;23.23;2.83;;;31.30;56.80;;;;;;4817452;28;20190;-76
2021/07/17 08:52:33;;;;;;;9.33;1.27;;;31.60;58.20;;;;;;4818144;28;20191;-77
2021/07/17 08:55:03;;;;;;;12.27;1.60;;;31.70;60.10;;;;;;4818389;28;20599;-75
2021/07/17 08:57:26;;;;;;;24.08;3.13;;;;;;;;;;4815477;28;20238;-75
2021/07/17 08:59:48;;;;;;;16.83;2.43;;;;;;;;;;4817500;28;20221;-75
2021/07/17 09:02:11;;;;;;;24.50;3.17;;;;;;;;;;4811973;28;20196;-75
2021/07/17 09:04:34;;;;;;;12.40;1.63;;;;;;;;;;4797642;28;20196;-75
2021/07/17 09:06:57;;;;;;;22.00;2.83;;;;;;;;;;4798325;28;20183;-75
2021/07/17 09:09:30;;;;;;;11.20;1.45;;;31.60;62.50;;;;;;4797627;28;20191;-75
2021/07/17 09:11:53;;;;;;;11.45;1.48;;;31.50;63.50;;;;;;4799367;28;20634;-75
2021/07/17 09:14:35;;;;;;;30.13;3.70;;;31.30;63.60;;;;;;4799340;28;20544;-75
2021/07/17 09:17:00;;;;;;;9.37;1.30;;;31.40;64.20;;;;;;4799271;28;20180;-76
2021/07/17 09:19:23;;;;;;;12.05;1.52;;;;;;;;;;4797064;28;20235;-77
2021/07/17 09:21:46;;;;;;;107.20;99.80;;;;;;;;;;4781701;28;20229;-81
2021/07/17 09:24:12;;;;;;;69.47;63.22;;;32.00;65.60;;;;;;4797905;28;20592;-76
2021/07/17 09:26:37;;;;;;;41.30;37.45;;;32.20;65.20;;;;;;4799406;28;20266;-77
2021/07/17 09:29:04;;;;;;;56.95;52.78;;;32.50;66.10;;;;;;4797833;28;20204;-76
2021/07/17 09:31:28;;;;;;;48.20;44.17;;;32.30;66.60;;;;;;4798458;28;20192;-76
2021/07/17 09:33:52;;;;;;;14.50;5.25;;;32.20;66.40;;;;;;4799382;28;20247;-76
2021/07/17 09:36:17;;;;;;;26.02;3.53;;;32.10;66.50;;;;;;4799044;28;20287;-75
2021/07/17 09:38:39;;;;;;;21.63;3.08;;;;;;;;;;4781295;28;20775;-77
2021/07/17 09:41:05;;;;;;;17.38;2.28;;;33.50;67.90;;;;;;4795990;28;20772;-80
2021/07/17 09:43:34;;;;;;;72.50;67.15;;;35.20;71.40;;;;;;4799705;28;20203;-78
2021/07/17 09:45:58;;;;;;;256.88;239.77;;;36.20;74.60;;;;;;4799703;28;20184;-76
2021/07/17 09:48:26;;;;;;;280.55;261.88;;;36.70;76.20;;;;;;4782300;28;20204;-76
2021/07/17 09:50:51;;;;;;;333.77;307.05;;;;;;;;;;4798948;28;20954;-77
2021/07/17 09:53:41;;;;;;;328.55;303.75;;;36.80;79.00;;;;;;4803128;28;20199;-77
2021/07/17 09:56:08;;;;;;;294.35;275.00;;;38.20;80.00;;;;;;4802587;28;20686;-76
2021/07/17 09:58:32;;;;;;;452.13;369.92;;;39.80;82.50;;;;;;4803069;28;20192;-77
2021/07/17 10:01:18;;;;;;;438.92;394.98;;;41.10;84.20;;;;;;4783948;28;20734;-78
2021/07/17 10:03:40;;;;;;;464.13;409.00;;;;;;;;;;4802536;28;20597;-75
2021/07/17 10:06:03;;;;;;;478.65;416.30;;;;;;;;;;4803245;28;20219;-78
2021/07/17 10:08:34;;;;;;;448.70;405.77;;;41.60;86.90;;;;;;4802863;28;20192;-77
2021/07/17 10:11:02;;;;;;;404.50;374.02;;;40.90;87.10;;;;;;4803884;28;20234;-84
2021/07/17 10:13:28;;;;;;;425.42;393.33;;;41.50;86.70;;;;;;4801358;28;20288;-85
2021/07/17 10:15:50;;;;;;;444.42;409.25;;;;;;;;;;4802393;28;20200;-78
2021/07/17 10:18:27;;;;;;;482.15;435.77;;;42.90;88.10;;;;;;4801803;28;20604;-79
2021/07/17 10:20:50;;;;;;;460.80;420.85;;;;;;;;;;4803425;28;20215;-78
2021/07/17 10:23:13;;;;;;;454.10;414.38;;;;;;;;;;4801977;28;20183;-77
2021/07/17 10:25:36;;;;;;;425.73;391.80;;;;;;;;;;4802183;28;20708;-79
2021/07/17 10:27:58;;;;;;;426.88;394.83;;;;;;;;;;4784410;28;20236;-76
2021/07/17 10:30:21;;;;;;;426.58;395.77;;;;;;;;;;4803392;28;20188;-75
2021/07/17 10:32:44;;;;;;;497.33;454.42;;;;;;;;;;4801727;28;20188;-76
2021/07/17 10:35:09;;;;;;;511.70;457.77;;;45.30;87.90;;;;;;4800923;28;20304;-77
2021/07/17 10:37:34;;;;;;;512.35;459.17;;;46.00;89.40;;;;;;4801657;28;20227;-81
2021/07/17 10:40:05;;;;;;;518.90;465.38;;;46.30;89.80;;;;;;4800611;28;20267;-77
2021/07/17 10:42:28;;;;;;;507.38;454.85;;;;;;;;;;4801010;28;20211;-76
2021/07/17 10:44:52;;;;;;;310.70;288.77;;;45.00;90.40;;;;;;4801403;28;20255;-77
2021/07/17 10:47:16;;;;;;;105.80;97.82;;;43.00;90.50;;;;;;4800440;28;20191;-75
2021/07/17 10:49:41;;;;;;;142.30;134.77;;;41.10;90.10;;;;;;4799534;28;20286;-83
2021/07/17 10:52:05;;;;;;;125.53;116.60;;;40.80;89.90;;;;;;4801868;28;20200;-82
2021/07/17 10:54:30;;;;;;;70.43;65.57;;;41.00;89.60;;;;;;4801169;28;20235;-74
2021/07/17 10:56:54;;;;;;;59.72;55.20;;;41.30;89.60;;;;;;4800543;28;20258;-76
2021/07/17 10:59:39;;;;;;;46.03;36.28;;;41.00;89.70;;;;;;4800689;28;20188;-77
2021/07/17 11:02:07;;;;;;;27.45;23.90;;;41.30;90.00;;;;;;4795396;28;20195;-76
2021/07/17 11:04:47;;;;;;;30.88;27.48;;;41.10;89.90;;;;;;4799751;28;20187;-75
2021/07/17 11:07:43;;;;;;;47.22;33.03;;;41.00;90.60;;;;;;4800016;28;20180;-76
2021/07/17 11:10:19;;;;;;;35.35;20.60;;;40.90;90.60;;;;;;4801605;28;20207;-75
2021/07/17 11:13:03;;;;;;;17.45;13.77;;;40.20;90.80;;;;;;4800573;28;20279;-77
2021/07/17 11:15:33;;;;;;;162.98;153.52;;;39.80;90.60;;;;;;4800981;28;20187;-76
2021/07/17 11:17:56;;;;;;;147.40;138.00;;;39.50;90.60;;;;;;4800259;28;20223;-83
2021/07/17 11:20:19;;;;;;;33.38;30.67;;;;;;;;;;4800769;28;20247;-75
2021/07/17 11:22:44;;;;;;;18.88;14.55;;;40.10;90.60;;;;;;4801181;28;20677;-77
2021/07/17 11:25:07;;;;;;;32.40;8.65;;;;;;;;;;4800909;28;20267;-78
2021/07/17 11:27:40;;;;;;;13.15;5.53;;;39.90;90.90;;;;;;4800311;28;20772;-77
2021/07/17 11:30:14;;;;;;;21.02;8.15;;;40.20;90.80;;;;;;4799340;28;20192;-85
2021/07/17 11:32:37;;;;;;;16.25;7.65;;;;;;;;;;4798962;28;20246;-78
2021/07/17 11:35:01;;;;;;;18.58;8.77;;;;;;;;;;4800467;28;20690;-75
2021/07/17 11:37:29;;;;;;;18.38;5.93;;;40.50;91.40;;;;;;4799762;28;20591;-75
2021/07/17 11:39:59;;;;;;;17.45;7.32;;;39.40;91.40;;;;;;4799618;28;20247;-76
2021/07/17 11:42:23;;;;;;;18.15;12.93;;;38.00;91.00;;;;;;4800510;28;20204;-78
2021/07/17 11:44:47;;;;;;;11.13;1.40;;;36.80;90.40;;;;;;4783055;28;20605;-75
2021/07/17 11:47:12;;;;;;;20.80;2.47;;;35.90;90.20;;;;;;4799395;28;20246;-78
2021/07/17 11:49:37;;;;;;;10.82;1.35;;;35.10;89.80;;;;;;4782444;28;20247;-75
2021/07/17 11:52:01;;;;;;;14.40;1.77;;;34.50;89.90;;;;;;4798257;28;20200;-73
2021/07/17 11:54:26;;;;;;;13.13;1.70;;;33.90;89.60;;;;;;4782326;28;20651;-74
2021/07/17 11:57:06;;;;;;;15.15;2.00;;;32.80;89.30;;;;;;4799184;28;20250;-75
2021/07/17 11:59:29;;;;;;;10.70;1.48;;;;;;;;;;4797930;28;20192;-75
2021/07/17 12:02:01;;;;;;;11.75;1.65;;;31.70;89.00;;;;;;4796560;28;20283;-75
2021/07/17 12:04:29;;;;;;;11.60;1.60;;;31.50;89.00;;;;;;4799830;28;20184;-76
2021/07/17 12:07:00;;;;;;;9.48;1.38;;;31.30;88.30;;;;;;4800140;28;20196;-79
2021/07/17 12:09:32;;;;;;;6.50;0.93;;;31.10;88.00;;;;;;4799717;28;20176;-85
2021/07/17 12:12:32;;;;;;;11.93;1.75;;;30.60;87.40;;;;;;4782199;28;20200;-81
2021/07/17 12:15:19;;;;;;;7.63;1.15;;;30.20;85.30;;;;;;4800647;28;20168;-78
2021/07/17 12:17:53;;;;;;;8.63;1.30;;;29.80;82.50;;;;;;4789697;28;20231;-76
2021/07/17 12:20:19;;;;;;;13.43;1.90;;;29.50;79.30;;;;;;4799207;28;20291;-75
2021/07/17 12:23:04;;;;;;;14.90;2.17;;;29.30;75.20;;;;;;4781488;28;20205;-76
2021/07/17 12:25:28;;;;;;;5.93;0.95;;;29.10;68.30;;;;;;4779911;28;20251;-83
2021/07/17 12:28:01;;;;;;;10.38;1.55;;;28.90;61.00;;;;;;4782425;28;20212;-78
2021/07/17 12:30:27;;;;;;;6.10;0.93;;;28.80;54.60;;;;;;4799362;28;20219;-85
2021/07/17 12:32:50;;;;;;;6.87;1.07;;;;;;;;;;4801748;28;20191;-89
2021/07/17 12:35:20;;;;;;;19.97;2.90;;;28.60;46.60;;;;;;4799543;28;20238;-75
2021/07/17 12:37:43;;;;;;;8.63;1.30;;;;;;;;;;4799229;28;20258;-78
2021/07/17 12:40:11;;;;;;;19.10;2.80;;;28.50;42.90;;;;;;4797762;28;20279;-77
2021/07/17 12:42:34;;;;;;;6.43;1.00;;;;;;;;;;4797825;28;20231;-79
2021/07/17 12:44:56;;;;;;;7.63;1.23;;;;;;;;;;4799129;28;20191;-81
2021/07/17 12:47:20;;;;;;;6.57;1.00;;;28.50;37.10;;;;;;4799995;28;20195;-82
2021/07/17 12:49:43;;;;;;;5.80;0.97;;;;;;;;;;4800084;28;20199;-85
2021/07/17 12:52:06;;;;;;;10.50;1.63;;;;;;;;;;4795015;28;20274;-87
2021/07/17 12:54:30;;;;;;;7.60;1.23;;;28.90;41.00;;;;;;4780970;28;20192;-74
2021/07/17 12:56:54;;;;;;;7.67;1.27;;;29.00;43.60;;;;;;4780025;28;20188;-74
2021/07/17 12:59:19;;;;;;;15.98;2.50;;;29.40;43.90;;;;;;4779574;28;20188;-75
2021/07/17 13:01:45;;;;;;;9.90;1.57;;;30.00;51.40;;;;;;4777918;28;20215;-77
2021/07/17 13:04:12;;;;;;;13.85;2.13;;;31.10;57.90;;;;;;4797823;28;20242;-77
2021/07/17 13:06:34;;;;;;;10.05;1.65;;;;;;;;;;4798130;28;20184;-75
2021/07/17 13:08:59;;;;;;;8.05;1.33;;;32.80;67.10;;;;;;4796699;28;20810;-73
2021/07/17 13:11:25;;;;;;;8.55;1.38;;;;;;;;;;4798257;28;20203;-73
2021/07/17 13:13:51;;;;;;;9.57;1.52;;;34.40;75.70;;;;;;4796697;28;20238;-74
2021/07/17 13:16:14;;;;;;;14.35;2.13;;;;;;;;;;4798535;28;20183;-75
2021/07/17 13:18:37;;;;;;;19.05;2.97;;;;;;;;;;4796581;28;20227;-74
2021/07/17 13:21:06;;;;;;;5.88;0.93;;;35.80;81.60;;;;;;4798629;28;20216;-77
2021/07/17 13:23:29;;;;;;;6.93;1.13;;;;;;;;;;4798036;28;20645;-75
2021/07/17 13:25:51;;;;;;;9.13;1.50;;;;;;;;;;4798856;28;20251;-76
2021/07/17 13:28:14;;;;;;;15.30;2.40;;;;;;;;;;4801179;28;20245;-76
2021/07/17 13:30:38;;;;;;;9.95;1.48;;;;;;;;;;4801703;28;20188;-76
2021/07/17 13:33:04;;;;;;;8.40;1.25;;;40.50;88.20;;;;;;4802540;28;20195;-77
2021/07/17 13:35:29;;;;;;;6.25;1.00;;;;;;;;;;4802296;28;20242;-76